Time;durP1;ratioP1;P1;durP2;ratioP2;P2;SDS_P1;SDS_P2;PMS_P1;PMS_P2;Temp;Humidity;BMP_temperature;BMP_pressure;BME280_temperature;BME280_humidity;BME280_pressure;Samples;Min_cycle;Max_cycle;Signal;HPM_P1;HPM_P2
2023/10/29 00:00:01;;;;;;;9.27;5.05;;;-0.50;99.90;;;;;;5047892;28;20190;-91
2023/10/29 00:02:35;;;;;;;12.07;5.90;;;-0.50;99.90;;;;;;5032443;28;20182;-92
2023/10/29 00:05:04;;;;;;;13.65;5.82;;;-0.60;99.90;;;;;;5047870;28;20218;-91
2023/10/29 00:07:31;;;;;;;9.88;5.45;;;-0.60;99.90;;;;;;5047906;28;20649;-92
2023/10/29 00:09:59;;;;;;;11.25;5.50;;;-0.60;99.90;;;;;;5031009;28;20185;-92
2023/10/29 00:12:27;;;;;;;11.13;5.90;;;-0.60;99.90;;;;;;5047435;28;20185;-90
2023/10/29 00:14:55;;;;;;;10.35;5.63;;;-0.60;99.90;;;;;;5031257;28;20711;-92
2023/10/29 00:17:22;;;;;;;12.05;5.72;;;-0.60;99.90;;;;;;5032595;28;20694;-90
2023/10/29 00:19:50;;;;;;;12.40;5.57;;;-0.60;99.90;;;;;;5047620;28;20564;-91
2023/10/29 00:22:18;;;;;;;10.18;5.63;;;-0.60;99.90;;;;;;5030774;28;20190;-92
2023/10/29 00:24:46;;;;;;;10.02;5.53;;;-0.60;99.90;;;;;;5047552;28;20247;-91
2023/10/29 00:27:14;;;;;;;9.50;5.47;;;-0.50;99.90;;;;;;5031803;28;20198;-92
2023/10/29 00:29:42;;;;;;;11.27;5.30;;;-0.60;99.90;;;;;;5030667;28;20281;-92
2023/10/29 00:32:09;;;;;;;11.15;5.43;;;-0.60;99.90;;;;;;5030874;28;20193;-92
2023/10/29 00:34:37;;;;;;;10.88;5.75;;;-0.50;99.90;;;;;;5030372;28;20221;-92
2023/10/29 00:37:06;;;;;;;10.85;5.43;;;-0.50;99.90;;;;;;5030481;28;20213;-92
2023/10/29 00:39:33;;;;;;;11.40;5.95;;;-0.50;99.90;;;;;;5046946;28;20293;-91
2023/10/29 00:42:03;;;;;;;9.05;4.75;;;-0.50;99.90;;;;;;5030401;28;20201;-91
2023/10/29 00:44:31;;;;;;;11.18;5.72;;;-0.50;99.90;;;;;;5030241;28;20623;-91
2023/10/29 00:46:59;;;;;;;9.57;5.15;;;-0.50;99.90;;;;;;5030622;28;20210;-92
2023/10/29 00:49:26;;;;;;;8.77;5.00;;;-0.50;99.90;;;;;;5030264;28;20240;-91
2023/10/29 00:51:54;;;;;;;10.65;4.97;;;-0.50;99.90;;;;;;5030357;28;20193;-92
2023/10/29 00:54:23;;;;;;;10.95;5.38;;;-0.50;99.90;;;;;;5047134;28;20236;-92
2023/10/29 00:56:53;;;;;;;9.07;4.88;;;-0.50;99.90;;;;;;5030396;28;20186;-91
2023/10/29 00:59:22;;;;;;;9.88;5.53;;;-0.50;99.90;;;;;;5030044;28;20189;-91
2023/10/29 01:01:49;;;;;;;7.93;4.60;;;-0.40;99.90;;;;;;5046712;28;20192;-91
2023/10/29 01:04:17;;;;;;;;;;;-0.50;99.90;;;;;;5030767;28;20190;-92
2023/10/29 01:06:46;;;;;;;;;;;-0.80;99.90;;;;;;5064073;28;19921;-92
2023/10/29 01:09:14;;;;;;;;;;;-0.90;99.90;;;;;;5047240;28;19929;-92
2023/10/29 01:11:42;;;;;;;;;;;-0.80;99.90;;;;;;5047016;28;19948;-92
2023/10/29 01:14:09;;;;;;;8.37;5.80;;;-0.70;99.90;;;;;;5062608;28;20426;-92
2023/10/29 01:16:38;;;;;;;9.73;4.88;;;-0.60;99.90;;;;;;5046638;28;20185;-93
2023/10/29 01:19:06;;;;;;;8.73;5.18;;;-0.60;99.90;;;;;;5030773;28;20194;-91
2023/10/29 01:21:34;;;;;;;8.80;5.07;;;-0.50;99.90;;;;;;5047122;28;20261;-92
2023/10/29 01:24:02;;;;;;;10.82;5.38;;;-0.50;99.90;;;;;;5046358;28;20277;-90
2023/10/29 01:26:31;;;;;;;9.82;5.43;;;-0.60;99.90;;;;;;5029424;28;20237;-92
2023/10/29 01:28:59;;;;;;;10.27;5.25;;;-0.60;99.90;;;;;;5030687;28;20182;-91
2023/10/29 01:31:27;;;;;;;8.00;4.65;;;-0.60;99.90;;;;;;5029514;28;20189;-91
2023/10/29 01:33:54;;;;;;;9.23;5.20;;;-0.50;99.90;;;;;;5046008;28;20260;-92
2023/10/29 01:36:22;;;;;;;10.40;5.70;;;-0.60;99.90;;;;;;5000398;28;20206;-91
2023/10/29 01:38:50;;;;;;;11.15;5.63;;;-0.60;99.90;;;;;;5048998;28;20225;-92
2023/10/29 01:41:17;;;;;;;13.05;5.03;;;-0.60;99.90;;;;;;5042906;28;20206;-91
2023/10/29 01:43:45;;;;;;;9.73;4.88;;;-0.70;99.90;;;;;;5042838;28;20199;-92
2023/10/29 01:46:13;;;;;;;9.43;5.78;;;-0.60;99.90;;;;;;5059639;28;20256;-91
2023/10/29 01:48:40;;;;;;;9.68;5.00;;;-0.70;99.90;;;;;;5042825;28;20190;-92
2023/10/29 01:51:08;;;;;;;9.23;4.75;;;-0.70;99.90;;;;;;5043304;28;20301;-92
2023/10/29 01:53:36;;;;;;;10.25;5.63;;;-0.60;99.90;;;;;;5042907;28;20198;-91
2023/10/29 01:56:10;;;;;;;9.95;5.60;;;-0.60;99.90;;;;;;5042628;28;20490;-92
2023/10/29 01:58:38;;;;;;;10.40;6.07;;;-0.60;99.90;;;;;;5026131;28;20247;-91
2023/10/29 02:01:12;;;;;;;9.85;5.10;;;-0.60;99.90;;;;;;5042546;28;20197;-91
2023/10/29 02:03:40;;;;;;;9.20;5.05;;;-0.50;99.90;;;;;;5042915;28;20285;-92
2023/10/29 02:06:18;;;;;;;10.48;5.70;;;-0.50;99.90;;;;;;5059418;28;20642;-91
2023/10/29 02:08:46;;;;;;;10.15;5.78;;;-0.50;99.90;;;;;;5042696;28;20187;-92
2023/10/29 02:11:14;;;;;;;9.80;5.65;;;-0.50;99.90;;;;;;5025925;28;20183;-91
2023/10/29 02:13:43;;;;;;;10.30;5.35;;;-0.50;99.90;;;;;;5042372;28;20190;-92
2023/10/29 02:16:11;;;;;;;9.57;4.68;;;-0.50;99.90;;;;;;5028010;28;20344;-92
2023/10/29 02:18:39;;;;;;;12.52;5.35;;;-0.50;99.90;;;;;;5029557;28;20264;-92
2023/10/29 02:21:06;;;;;;;9.45;5.63;;;-0.50;99.90;;;;;;5063129;28;20616;-92
2023/10/29 02:23:34;;;;;;;10.15;5.53;;;-0.50;99.90;;;;;;5029826;28;20195;-92
2023/10/29 02:26:02;;;;;;;10.88;4.90;;;-0.60;99.90;;;;;;5063006;28;20221;-91
2023/10/29 02:28:30;;;;;;;7.97;4.65;;;-0.60;99.90;;;;;;5029630;28;20281;-92
2023/10/29 02:30:57;;;;;;;11.43;5.40;;;-0.60;99.90;;;;;;5029769;28;20183;-91
2023/10/29 02:33:25;;;;;;;11.38;5.40;;;-0.70;99.90;;;;;;5045805;28;20194;-91
2023/10/29 02:35:53;;;;;;;8.15;5.00;;;-0.70;99.90;;;;;;5013562;28;20222;-92
2023/10/29 02:38:21;;;;;;;10.15;5.65;;;-0.60;99.90;;;;;;5029473;28;20215;-91
2023/10/29 02:40:48;;;;;;;10.77;5.13;;;-0.60;99.90;;;;;;5029436;28;20244;-92
2023/10/29 02:43:16;;;;;;;11.05;5.15;;;-0.60;99.90;;;;;;5045937;28;20676;-92
2023/10/29 02:45:44;;;;;;;10.70;5.50;;;-0.70;99.90;;;;;;5028998;28;20249;-93
2023/10/29 02:48:11;;;;;;;11.77;5.40;;;-0.60;99.90;;;;;;5029216;28;20198;-92
2023/10/29 02:50:39;;;;;;;8.95;5.13;;;-0.70;99.90;;;;;;5043883;28;20182;-93
2023/10/29 02:53:07;;;;;;;9.40;4.90;;;-0.60;99.90;;;;;;5048127;28;20189;-92
2023/10/29 02:55:35;;;;;;;10.57;5.97;;;-0.50;99.90;;;;;;5016060;28;20178;-91
2023/10/29 02:58:02;;;;;;;13.82;5.63;;;-0.60;99.90;;;;;;5016030;28;20277;-90
2023/10/29 03:00:30;;;;;;;10.60;5.43;;;-0.50;99.90;;;;;;5031539;28;20182;-91
2023/10/29 03:02:58;;;;;;;9.15;4.75;;;-0.60;99.90;;;;;;5065635;28;20285;-92
2023/10/29 03:05:26;;;;;;;11.02;5.30;;;-0.60;99.90;;;;;;5032851;28;20178;-91
2023/10/29 03:07:53;;;;;;;10.63;5.25;;;-0.60;99.90;;;;;;5048211;28;20198;-91
2023/10/29 03:10:21;;;;;;;12.05;6.30;;;-0.60;99.90;;;;;;5032436;28;20190;-91
2023/10/29 03:12:49;;;;;;;10.48;5.85;;;-0.70;99.90;;;;;;5031767;28;20197;-92
2023/10/29 03:15:17;;;;;;;8.57;4.70;;;-0.70;99.90;;;;;;5016411;28;20194;-92
2023/10/29 03:17:45;;;;;;;11.95;5.07;;;-0.60;99.90;;;;;;5016557;28;20200;-92
2023/10/29 03:20:16;;;;;;;12.05;5.50;;;-0.60;99.90;;;;;;5015445;28;20284;-91
2023/10/29 03:22:43;;;;;;;11.65;6.25;;;-0.60;99.90;;;;;;5032277;28;20201;-92
2023/10/29 03:25:11;;;;;;;8.88;5.10;;;-0.50;99.90;;;;;;5016647;28;20186;-91
2023/10/29 03:27:39;;;;;;;8.82;5.25;;;-0.60;99.90;;;;;;5011214;28;20223;-91
2023/10/29 03:30:07;;;;;;;8.98;5.13;;;-0.60;99.90;;;;;;5045335;28;20197;-91
2023/10/29 03:32:35;;;;;;;12.23;5.95;;;-0.70;99.90;;;;;;5020596;28;20201;-92
2023/10/29 03:35:04;;;;;;;11.63;5.82;;;-0.60;99.90;;;;;;5048105;28;20224;-92
2023/10/29 03:37:31;;;;;;;9.88;4.82;;;-0.70;99.90;;;;;;5015555;28;20194;-92
2023/10/29 03:39:59;;;;;;;11.93;5.88;;;-0.60;99.90;;;;;;5031722;28;20189;-91
2023/10/29 03:42:28;;;;;;;9.43;5.18;;;-0.60;99.90;;;;;;5047919;28;20194;-91
2023/10/29 03:44:55;;;;;;;9.85;5.60;;;-0.50;99.90;;;;;;5015459;28;20198;-91
2023/10/29 03:47:23;;;;;;;;;;;-0.60;99.90;;;;;;5048769;28;20230;-92
2023/10/29 03:49:51;;;;;;;;;;;-0.60;99.90;;;;;;5065372;28;19925;-92
2023/10/29 03:52:19;;;;;;;;;;;-0.60;99.90;;;;;;5032017;28;19943;-92
2023/10/29 03:54:47;;;;;;;;;;;-0.60;99.90;;;;;;5048742;28;19932;-92
2023/10/29 03:57:14;;;;;;;;;;;-0.60;99.90;;;;;;5065133;28;19929;-91
2023/10/29 03:59:43;;;;;;;;;;;-0.60;99.90;;;;;;5048175;28;20380;-91
2023/10/29 04:02:11;;;;;;;9.15;6.22;;;-0.60;99.90;;;;;;5047473;28;20418;-92
2023/10/29 04:04:40;;;;;;;8.02;4.72;;;-0.50;99.90;;;;;;5031249;28;20192;-93
2023/10/29 04:07:14;;;;;;;7.00;4.05;;;-0.60;99.90;;;;;;5032005;28;20217;-91
2023/10/29 04:09:41;;;;;;;8.00;4.78;;;-0.60;99.90;;;;;;5047668;28;20186;-92
2023/10/29 04:12:10;;;;;;;7.07;4.53;;;-0.60;99.90;;;;;;5048138;28;20269;-91
2023/10/29 04:14:39;;;;;;;8.80;4.38;;;-0.60;99.90;;;;;;5047376;28;20185;-91
2023/10/29 04:17:07;;;;;;;9.75;4.60;;;-0.60;99.90;;;;;;5030854;28;20221;-92
2023/10/29 04:19:36;;;;;;;7.75;4.40;;;-0.50;99.90;;;;;;5047760;28;20193;-91
2023/10/29 04:22:04;;;;;;;8.45;4.72;;;-0.50;99.90;;;;;;5031143;28;20196;-91
2023/10/29 04:24:31;;;;;;;10.30;4.50;;;-0.50;99.90;;;;;;5047341;28;20186;-93
2023/10/29 04:26:59;;;;;;;8.77;4.63;;;-0.60;99.90;;;;;;5031075;28;20288;-92
2023/10/29 04:29:27;;;;;;;8.02;4.40;;;-0.60;99.90;;;;;;5047553;28;20244;-92
2023/10/29 04:31:55;;;;;;;8.48;5.13;;;-0.50;99.90;;;;;;5030892;28;20461;-91
2023/10/29 04:34:23;;;;;;;8.30;5.00;;;-0.50;99.90;;;;;;5030441;28;20299;-92
2023/10/29 04:36:52;;;;;;;8.93;4.50;;;-0.60;99.90;;;;;;5014564;28;20225;-93
2023/10/29 04:39:19;;;;;;;7.75;4.72;;;-0.50;99.90;;;;;;5063603;28;20190;-91
2023/10/29 04:41:47;;;;;;;8.32;4.43;;;-0.50;99.90;;;;;;5048540;28;20189;-92
2023/10/29 04:44:15;;;;;;;9.25;4.88;;;-0.50;99.90;;;;;;5049686;28;20190;-92
2023/10/29 04:46:43;;;;;;;9.27;4.97;;;-0.50;99.90;;;;;;5016660;28;20205;-92
2023/10/29 04:49:11;;;;;;;12.50;4.65;;;-0.50;99.90;;;;;;5049457;28;20186;-91
2023/10/29 04:51:38;;;;;;;9.38;4.28;;;-0.50;99.90;;;;;;5049836;28;20186;-93
2023/10/29 04:54:07;;;;;;;8.20;4.05;;;-0.50;99.90;;;;;;5032922;28;20193;-92
2023/10/29 04:56:35;;;;;;;7.55;4.32;;;-0.60;99.90;;;;;;5033113;28;20185;-93
2023/10/29 04:59:02;;;;;;;9.73;4.70;;;-0.60;99.90;;;;;;5049676;28;20202;-93
2023/10/29 05:01:30;;;;;;;8.48;5.30;;;-0.60;99.90;;;;;;5032316;28;20194;-91
2023/10/29 05:03:58;;;;;;;;;;;-0.70;99.90;;;;;;4996801;28;20206;-91
2023/10/29 05:06:25;;;;;;;9.07;6.00;;;-0.80;99.90;;;;;;4996187;28;20972;-92
2023/10/29 05:08:53;;;;;;;8.35;5.22;;;-0.70;99.90;;;;;;5029822;28;20657;-92
2023/10/29 05:11:22;;;;;;;8.65;4.63;;;-0.70;99.90;;;;;;5013419;28;20182;-93
2023/10/29 05:13:49;;;;;;;11.68;5.45;;;-0.60;99.90;;;;;;5029687;28;20182;-92
2023/10/29 05:16:20;;;;;;;10.13;5.30;;;-0.50;99.90;;;;;;5014117;28;20270;-93
2023/10/29 05:18:48;;;;;;;10.63;5.53;;;-0.50;99.90;;;;;;5013167;28;20668;-92
2023/10/29 05:21:15;;;;;;;9.30;4.80;;;-0.60;99.90;;;;;;5012051;28;20197;-92
2023/10/29 05:23:43;;;;;;;7.97;5.00;;;-0.60;99.90;;;;;;5013026;28;20197;-91
2023/10/29 05:26:11;;;;;;;6.72;4.25;;;-0.60;99.90;;;;;;5026890;28;20194;-92
2023/10/29 05:28:39;;;;;;;8.38;4.57;;;-0.60;99.90;;;;;;5010041;28;20190;-91
2023/10/29 05:31:07;;;;;;;9.00;4.95;;;-0.60;99.90;;;;;;5043232;28;20552;-92
2023/10/29 05:33:35;;;;;;;9.10;5.20;;;-0.70;99.90;;;;;;5010063;28;20218;-91
2023/10/29 05:36:04;;;;;;;7.75;4.47;;;-0.70;99.90;;;;;;5011375;28;20174;-93
2023/10/29 05:38:31;;;;;;;8.30;4.45;;;-0.70;99.90;;;;;;5010315;28;20280;-92
2023/10/29 05:40:59;;;;;;;19.20;14.70;;;-0.70;99.90;;;;;;5026595;28;20719;-90
2023/10/29 05:43:27;;;;;;;7.72;4.28;;;-0.70;99.90;;;;;;5042937;28;20708;-91
2023/10/29 05:45:55;;;;;;;9.77;4.72;;;-0.70;99.90;;;;;;4994169;28;20280;-91
2023/10/29 05:48:23;;;;;;;7.30;4.10;;;-0.60;99.90;;;;;;5010045;28;20222;-92
2023/10/29 05:50:51;;;;;;;8.27;4.88;;;-0.60;99.90;;;;;;5028375;28;20199;-92
2023/10/29 05:53:19;;;;;;;9.23;4.78;;;-0.50;99.90;;;;;;5030119;28;20265;-91
2023/10/29 05:55:47;;;;;;;9.82;5.13;;;-0.60;99.90;;;;;;5047173;28;20194;-92
2023/10/29 05:58:15;;;;;;;9.00;4.63;;;-0.50;99.90;;;;;;5046811;28;20195;-91
2023/10/29 06:00:43;;;;;;;7.90;4.85;;;-0.50;99.90;;;;;;5029955;28;20190;-91
2023/10/29 06:03:11;;;;;;;7.78;4.63;;;-0.50;99.90;;;;;;5013681;28;20187;-91
2023/10/29 06:05:39;;;;;;;10.60;4.70;;;-0.50;99.90;;;;;;5013536;28;20563;-91
2023/10/29 06:08:07;;;;;;;10.18;5.40;;;-0.50;99.90;;;;;;5046998;28;20261;-92
2023/10/29 06:10:34;;;;;;;10.90;5.75;;;-0.50;99.90;;;;;;5014218;28;20732;-91
2023/10/29 06:13:02;;;;;;;16.50;5.93;;;-0.50;99.90;;;;;;5030194;28;20222;-91
2023/10/29 06:15:30;;;;;;;10.95;6.28;;;-0.50;99.90;;;;;;5013732;28;20680;-91
2023/10/29 06:17:58;;;;;;;9.77;5.35;;;-0.60;99.90;;;;;;5029929;28;20293;-91
2023/10/29 06:20:27;;;;;;;11.60;6.07;;;-0.60;99.90;;;;;;5058335;28;20229;-89
2023/10/29 06:22:55;;;;;;;10.30;5.57;;;-0.70;99.90;;;;;;5018066;28;20190;-90
2023/10/29 06:25:22;;;;;;;10.18;6.03;;;-0.70;99.90;;;;;;5016481;28;20193;-90
2023/10/29 06:27:50;;;;;;;10.07;5.50;;;-0.60;99.90;;;;;;5032880;28;20217;-90
2023/10/29 06:30:18;;;;;;;12.73;5.53;;;-0.60;99.90;;;;;;5033026;28;20232;-91
2023/10/29 06:32:46;;;;;;;12.05;6.78;;;-0.50;99.90;;;;;;5032233;28;20260;-92
2023/10/29 06:35:14;;;;;;;13.18;6.35;;;-0.50;99.90;;;;;;5016294;28;20240;-92
2023/10/29 06:37:41;;;;;;;10.93;6.30;;;-0.50;99.90;;;;;;5012474;28;20657;-92
2023/10/29 06:40:09;;;;;;;10.63;5.53;;;-0.50;99.90;;;;;;5041993;28;20194;-93
2023/10/29 06:42:38;;;;;;;11.35;6.07;;;-0.60;99.90;;;;;;5021962;28;20201;-92
2023/10/29 06:45:07;;;;;;;10.85;6.00;;;-0.60;99.90;;;;;;5012558;28;20260;-91
2023/10/29 06:47:35;;;;;;;11.25;6.38;;;-0.60;99.90;;;;;;5045250;28;20345;-91
2023/10/29 06:50:03;;;;;;;10.35;6.40;;;-0.60;99.90;;;;;;5033756;28;20668;-92
2023/10/29 06:52:33;;;;;;;11.25;5.97;;;-0.60;99.90;;;;;;5036905;28;20197;-93
2023/10/29 06:55:02;;;;;;;24.60;9.82;;;-0.60;99.90;;;;;;5010946;28;20245;-91
2023/10/29 06:57:31;;;;;;;13.40;6.93;;;-0.50;99.90;;;;;;5044930;28;20186;-91
2023/10/29 07:00:00;;;;;;;14.13;6.22;;;-0.50;99.90;;;;;;5032106;28;20578;-91
2023/10/29 07:02:28;;;;;;;12.77;6.82;;;-0.50;99.90;;;;;;5048630;28;20194;-90
2023/10/29 07:04:59;;;;;;;10.40;6.05;;;-0.50;99.90;;;;;;5048351;28;20205;-92
2023/10/29 07:07:29;;;;;;;14.07;6.53;;;-0.40;99.90;;;;;;5015643;28;20218;-91
2023/10/29 07:09:57;;;;;;;11.65;7.00;;;-0.50;99.90;;;;;;5031901;28;20221;-93
2023/10/29 07:12:26;;;;;;;12.63;6.45;;;-0.40;99.90;;;;;;5025950;28;20552;-91
2023/10/29 07:14:56;;;;;;;11.30;6.88;;;-0.40;99.90;;;;;;5045023;28;20190;-92
2023/10/29 07:17:24;;;;;;;9.43;5.05;;;-0.40;99.90;;;;;;5045041;28;20242;-92
2023/10/29 07:19:52;;;;;;;14.35;6.78;;;-0.40;99.90;;;;;;5028778;28;20575;-91
2023/10/29 07:22:20;;;;;;;13.98;6.47;;;-0.40;99.90;;;;;;5045193;28;20204;-90
2023/10/29 07:24:48;;;;;;;10.75;5.82;;;-0.40;99.90;;;;;;5023324;28;20201;-91
2023/10/29 07:27:16;;;;;;;12.88;6.40;;;-0.40;99.90;;;;;;5032244;28;20214;-92
2023/10/29 07:29:43;;;;;;;11.00;6.45;;;-0.40;99.90;;;;;;5048163;28;20190;-92
2023/10/29 07:32:12;;;;;;;10.80;5.75;;;-0.40;99.90;;;;;;5039831;28;20217;-91
2023/10/29 07:34:40;;;;;;;11.38;6.35;;;-0.40;99.90;;;;;;5022745;28;20837;-92
2023/10/29 07:37:09;;;;;;;11.15;6.40;;;-0.40;99.90;;;;;;5047696;28;20194;-91
2023/10/29 07:39:38;;;;;;;10.85;6.50;;;-0.40;99.90;;;;;;5045095;28;20190;-91
2023/10/29 07:42:06;;;;;;;11.80;6.93;;;-0.40;99.90;;;;;;5035754;28;20554;-90
2023/10/29 07:44:34;;;;;;;11.90;6.60;;;-0.40;99.90;;;;;;5062229;28;20210;-91
2023/10/29 07:47:08;;;;;;;11.43;6.80;;;-0.30;99.90;;;;;;5030804;28;20679;-91
2023/10/29 07:49:37;;;;;;;12.85;7.45;;;-0.30;99.90;;;;;;5031218;28;20186;-91
2023/10/29 07:52:06;;;;;;;10.68;6.70;;;-0.30;99.90;;;;;;5031757;28;20718;-91
2023/10/29 07:54:34;;;;;;;12.80;7.43;;;-0.30;99.90;;;;;;5047628;28;20202;-91
2023/10/29 07:57:02;;;;;;;10.05;5.95;;;-0.30;99.90;;;;;;5030738;28;20182;-89
2023/10/29 07:59:33;;;;;;;14.05;6.68;;;-0.30;99.90;;;;;;5047429;28;20190;-86
2023/10/29 08:02:01;;;;;;;11.55;6.38;;;-0.30;99.90;;;;;;5030292;28;20249;-86
2023/10/29 08:04:30;;;;;;;11.23;6.30;;;-0.30;99.90;;;;;;5029172;28;20188;-85
2023/10/29 08:06:57;;;;;;;14.50;5.93;;;-0.30;99.90;;;;;;5045720;28;20565;-85
2023/10/29 08:09:26;;;;;;;11.40;6.35;;;-0.30;99.90;;;;;;5030688;28;20269;-83
2023/10/29 08:11:54;;;;;;;10.35;5.80;;;-0.20;99.90;;;;;;5028811;28;20200;-86
2023/10/29 08:14:21;;;;;;;10.65;6.05;;;-0.20;99.90;;;;;;5044734;28;20596;-85
2023/10/29 08:16:49;;;;;;;11.23;5.20;;;-0.30;99.90;;;;;;5029120;28;20190;-87
2023/10/29 08:19:17;;;;;;;16.55;7.18;;;-0.30;99.90;;;;;;5045724;28;20210;-87
2023/10/29 08:21:45;;;;;;;9.75;5.55;;;-0.30;99.90;;;;;;5045593;28;20259;-87
2023/10/29 08:24:13;;;;;;;10.27;5.47;;;-0.30;99.90;;;;;;5045421;28;20197;-91
2023/10/29 08:26:41;;;;;;;10.18;5.63;;;-0.30;99.90;;;;;;5045725;28;20295;-89
2023/10/29 08:29:09;;;;;;;9.45;5.53;;;-0.20;99.90;;;;;;5030182;28;20210;-88
2023/10/29 08:31:37;;;;;;;9.82;5.43;;;-0.20;99.90;;;;;;5029265;28;20201;-89
2023/10/29 08:34:05;;;;;;;8.48;4.63;;;-0.20;99.90;;;;;;5029168;28;20260;-87
2023/10/29 08:36:33;;;;;;;8.68;4.70;;;-0.20;99.90;;;;;;5012625;28;20217;-87
2023/10/29 08:39:01;;;;;;;9.02;4.35;;;-0.20;99.90;;;;;;5028709;28;20672;-87
2023/10/29 08:41:29;;;;;;;9.77;4.90;;;-0.20;99.90;;;;;;5030145;28;20190;-86
2023/10/29 08:43:57;;;;;;;9.32;5.15;;;-0.20;99.90;;;;;;5028793;28;20543;-87
2023/10/29 08:46:25;;;;;;;8.20;5.20;;;-0.10;99.90;;;;;;5023739;28;20590;-87
2023/10/29 08:48:53;;;;;;;9.30;4.95;;;-0.10;99.90;;;;;;5024856;28;20210;-85
2023/10/29 08:51:21;;;;;;;8.68;4.97;;;-0.10;99.90;;;;;;5025178;28;20678;-87
2023/10/29 08:53:49;;;;;;;9.30;5.57;;;-0.10;99.90;;;;;;5025098;28;20236;-87
2023/10/29 08:56:17;;;;;;;9.85;5.32;;;-0.10;99.90;;;;;;5030145;28;20214;-87
2023/10/29 08:58:44;;;;;;;8.90;5.20;;;0.00;99.90;;;;;;5025022;28;20752;-86
2023/10/29 09:01:12;;;;;;;7.63;4.80;;;0.00;99.90;;;;;;5041889;28;20230;-86
2023/10/29 09:03:40;;;;;;;11.05;5.00;;;0.00;99.90;;;;;;5042513;28;20645;-90
2023/10/29 09:06:08;;;;;;;15.63;5.55;;;0.00;99.90;;;;;;5043139;28;20193;-91
2023/10/29 09:08:37;;;;;;;8.63;4.97;;;0.00;99.90;;;;;;5025681;28;20222;-87
2023/10/29 09:11:05;;;;;;;7.25;4.38;;;0.10;99.90;;;;;;5048049;28;20181;-87
2023/10/29 09:13:34;;;;;;;9.10;5.10;;;0.10;99.90;;;;;;5012095;28;20197;-86
2023/10/29 09:16:02;;;;;;;7.18;4.57;;;0.10;99.90;;;;;;5012248;28;20197;-88
2023/10/29 09:18:31;;;;;;;10.18;5.32;;;0.10;99.90;;;;;;5028319;28;20217;-87
2023/10/29 09:20:58;;;;;;;18.05;6.38;;;0.10;99.90;;;;;;5030216;28;20200;-86
2023/10/29 09:23:29;;;;;;;7.65;4.30;;;0.10;99.90;;;;;;5045072;28;20197;-86
2023/10/29 09:25:57;;;;;;;8.55;4.90;;;0.10;99.90;;;;;;5028616;28;20197;-88
2023/10/29 09:28:26;;;;;;;8.02;4.70;;;0.10;99.90;;;;;;5026489;28;20217;-87
2023/10/29 09:30:54;;;;;;;7.18;4.13;;;0.10;99.90;;;;;;5012070;28;20206;-88
2023/10/29 09:33:23;;;;;;;6.55;4.10;;;0.10;99.90;;;;;;5024644;28;20202;-88
2023/10/29 09:35:53;;;;;;;7.80;4.30;;;0.10;99.90;;;;;;5009455;28;20298;-87
2023/10/29 09:38:21;;;;;;;8.38;4.32;;;0.20;99.90;;;;;;5008694;28;20289;-87
2023/10/29 09:40:52;;;;;;;6.72;4.10;;;0.20;99.90;;;;;;5010032;28;20187;-86
2023/10/29 09:43:30;;;;;;;7.85;3.58;;;0.20;99.90;;;;;;5010154;28;20649;-87
2023/10/29 09:46:01;;;;;;;6.68;3.60;;;0.20;99.90;;;;;;5038420;28;20579;-88
2023/10/29 09:48:29;;;;;;;6.82;3.60;;;0.20;99.90;;;;;;5028937;28;20293;-89
2023/10/29 09:50:59;;;;;;;6.78;3.80;;;0.30;99.90;;;;;;5029551;28;20185;-89
2023/10/29 09:53:29;;;;;;;6.60;3.08;;;0.30;99.90;;;;;;5046595;28;20200;-88
2023/10/29 09:55:58;;;;;;;5.15;3.45;;;0.30;99.90;;;;;;5029463;28;20246;-88
2023/10/29 09:58:27;;;;;;;8.77;4.10;;;0.30;99.90;;;;;;5029770;28;20186;-88
2023/10/29 10:00:58;;;;;;;6.85;4.28;;;0.30;99.90;;;;;;5029600;28;20186;-89
2023/10/29 10:03:26;;;;;;;5.85;4.00;;;0.30;99.90;;;;;;5029373;28;20190;-90
2023/10/29 10:05:55;;;;;;;7.75;4.38;;;0.30;99.90;;;;;;5029724;28;20190;-88
2023/10/29 10:08:27;;;;;;;8.23;4.90;;;0.30;99.90;;;;;;5029322;28;20260;-89
2023/10/29 10:10:56;;;;;;;8.05;5.00;;;0.40;99.90;;;;;;5029425;28;20214;-88
2023/10/29 10:13:41;;;;;;;9.20;4.25;;;0.40;99.90;;;;;;5028857;28;20221;-90
2023/10/29 10:16:16;;;;;;;8.35;4.40;;;0.40;99.90;;;;;;5028832;28;20298;-87
2023/10/29 10:18:55;;;;;;;8.25;4.28;;;0.40;99.90;;;;;;5044751;28;20267;-88
2023/10/29 10:21:40;;;;;;;7.22;4.38;;;0.50;99.90;;;;;;5028535;28;20193;-88
2023/10/29 10:24:08;;;;;;;9.10;4.60;;;0.50;99.90;;;;;;5028551;28;20221;-87
2023/10/29 10:26:38;;;;;;;10.98;4.50;;;0.50;99.90;;;;;;5028507;28;20189;-89
2023/10/29 10:29:08;;;;;;;7.97;4.10;;;0.50;99.90;;;;;;5060955;28;20289;-88
2023/10/29 10:31:36;;;;;;;7.53;4.35;;;0.60;99.90;;;;;;5028596;28;20194;-88
2023/10/29 10:34:19;;;;;;;9.05;4.50;;;0.70;99.90;;;;;;5028790;28;20225;-90
2023/10/29 10:36:53;;;;;;;5.85;4.05;;;0.70;99.90;;;;;;5029709;28;20182;-89
2023/10/29 10:39:22;;;;;;;10.25;4.30;;;0.80;99.90;;;;;;5031995;28;20594;-88
2023/10/29 10:41:50;;;;;;;8.32;4.95;;;0.90;99.90;;;;;;5032188;28;20197;-89
2023/10/29 10:44:19;;;;;;;7.25;4.10;;;0.90;99.90;;;;;;5032295;28;20193;-88
2023/10/29 10:46:52;;;;;;;8.43;4.78;;;1.00;99.90;;;;;;5048965;28;20794;-89
2023/10/29 10:49:21;;;;;;;8.23;4.70;;;1.10;99.90;;;;;;5032375;28;20200;-88
2023/10/29 10:52:01;;;;;;;7.90;4.10;;;1.30;99.90;;;;;;5032216;28;20260;-88
2023/10/29 10:54:32;;;;;;;7.15;4.70;;;1.40;99.90;;;;;;5048461;28;20236;-88
2023/10/29 10:57:00;;;;;;;8.30;4.60;;;1.30;99.90;;;;;;5019158;28;20564;-93
2023/10/29 10:59:35;;;;;;;6.88;3.83;;;1.30;99.90;;;;;;4998735;28;20414;-90
2023/10/29 11:02:08;;;;;;;4.90;3.50;;;1.40;99.90;;;;;;5010537;28;20221;-93
2023/10/29 11:04:36;;;;;;;8.77;3.88;;;1.30;99.90;;;;;;5013441;28;20174;-93
2023/10/29 11:07:04;;;;;;;7.93;4.35;;;1.30;99.90;;;;;;5046074;28;20190;-86
2023/10/29 11:09:32;;;;;;;5.85;3.70;;;1.20;99.90;;;;;;5012753;28;20293;-91
2023/10/29 11:12:04;;;;;;;4.70;3.42;;;1.30;99.90;;;;;;5013175;28;20261;-91
2023/10/29 11:14:38;;;;;;;5.22;3.45;;;1.40;99.90;;;;;;5013820;28;20660;-90
2023/10/29 11:17:07;;;;;;;9.38;3.58;;;1.40;99.90;;;;;;5029385;28;20183;-90
2023/10/29 11:19:39;;;;;;;7.55;3.95;;;1.40;99.90;;;;;;5017011;28;20198;-91
2023/10/29 11:22:17;;;;;;;6.38;3.67;;;1.30;99.90;;;;;;5016811;28;20289;-94
2023/10/29 11:25:08;;;;;;;7.80;3.50;;;1.30;99.90;;;;;;5022231;28;20257;-94
2023/10/29 11:27:44;;;;;;;7.38;3.45;;;1.30;99.90;;;;;;5019863;28;20272;-93
2023/10/29 11:30:17;;;;;;;5.75;3.75;;;1.30;99.90;;;;;;5059464;28;20201;-93
2023/10/29 11:32:46;;;;;;;5.72;3.13;;;1.30;99.90;;;;;;5047167;28;20207;-94
2023/10/29 11:35:21;;;;;;;5.32;3.55;;;1.30;99.90;;;;;;5056338;28;20280;-92
2023/10/29 11:37:51;;;;;;;10.13;3.60;;;1.30;99.90;;;;;;5027870;28;20198;-91
2023/10/29 11:40:25;;;;;;;7.20;3.28;;;1.30;99.90;;;;;;5029091;28;20253;-91
2023/10/29 11:42:55;;;;;;;5.63;3.33;;;1.30;99.90;;;;;;5014055;28;20194;-92
2023/10/29 11:45:28;;;;;;;4.88;3.15;;;1.30;99.90;;;;;;5016683;28;20187;-90
2023/10/29 11:48:09;;;;;;;7.80;3.83;;;1.30;99.90;;;;;;5047745;28;20558;-93
2023/10/29 11:50:37;;;;;;;8.02;3.50;;;1.40;99.90;;;;;;5048900;28;20236;-94
2023/10/29 11:53:06;;;;;;;6.95;3.90;;;1.40;99.90;;;;;;5015987;28;20186;-93
2023/10/29 11:55:42;;;;;;;7.35;3.53;;;1.30;99.90;;;;;;5032257;28;20206;-92
2023/10/29 11:58:10;;;;;;;8.02;3.53;;;1.30;99.90;;;;;;5031990;28;20186;-92
2023/10/29 12:00:38;;;;;;;5.10;2.95;;;1.30;99.90;;;;;;5048645;28;20192;-94
2023/10/29 12:03:11;;;;;;;5.85;3.38;;;1.30;99.90;;;;;;5031862;28;20194;-92
2023/10/29 12:05:48;;;;;;;7.70;3.65;;;1.20;99.90;;;;;;5048015;28;20196;-93
2023/10/29 12:08:17;;;;;;;5.38;3.40;;;1.20;99.90;;;;;;5032247;28;20229;-94
2023/10/29 12:10:54;;;;;;;5.93;3.67;;;1.20;99.90;;;;;;5031289;28;20182;-93
2023/10/29 12:13:22;;;;;;;6.78;3.63;;;1.20;99.90;;;;;;5018701;28;20203;-94
2023/10/29 12:16:00;;;;;;;7.93;3.85;;;1.20;99.90;;;;;;5028204;28;20748;-94
2023/10/29 12:18:28;;;;;;;6.93;3.80;;;1.10;99.90;;;;;;5031262;28;20193;-94
2023/10/29 12:21:07;;;;;;;6.45;3.80;;;1.20;99.90;;;;;;5032319;28;20191;-93
2023/10/29 12:23:36;;;;;;;8.23;4.20;;;1.10;99.90;;;;;;5029098;28;20573;-94
2023/10/29 12:26:06;;;;;;;6.25;3.75;;;1.10;99.90;;;;;;5029304;28;20194;-92
2023/10/29 12:28:36;;;;;;;5.72;3.63;;;1.10;99.90;;;;;;5048042;28;20320;-93
2023/10/29 12:31:04;;;;;;;7.45;3.70;;;1.10;99.90;;;;;;5031442;28;20189;-92
2023/10/29 12:33:37;;;;;;;6.38;3.80;;;1.10;99.90;;;;;;5015568;28;20222;-93
2023/10/29 12:36:14;;;;;;;8.98;3.63;;;1.10;99.90;;;;;;5047993;28;20193;-94
2023/10/29 12:38:43;;;;;;;8.07;3.97;;;1.10;99.90;;;;;;5030988;28;20189;-92
2023/10/29 12:41:21;;;;;;;5.25;3.08;;;1.10;99.90;;;;;;5031678;28;20186;-93
2023/10/29 12:43:53;;;;;;;6.15;3.70;;;1.10;99.90;;;;;;5031884;28;20194;-93
2023/10/29 12:46:22;;;;;;;6.95;3.90;;;1.10;99.90;;;;;;5029852;28;20190;-93
2023/10/29 12:49:05;;;;;;;8.18;4.10;;;1.10;99.90;;;;;;5030428;28;20579;-94
2023/10/29 12:51:37;;;;;;;5.07;3.25;;;1.10;99.90;;;;;;5018985;28;20186;-94
2023/10/29 12:54:19;;;;;;;6.93;3.60;;;1.10;99.90;;;;;;5027539;28;20240;-95
2023/10/29 12:57:10;;;;;;;7.43;3.88;;;1.10;99.90;;;;;;5043690;28;20190;-93